Time;durP1;ratioP1;P1;durP2;ratioP2;P2;SDS_P1;SDS_P2;PMS_P1;PMS_P2;Temp;Humidity;BMP_temperature;BMP_pressure;BME280_temperature;BME280_humidity;BME280_pressure;Samples;Min_cycle;Max_cycle;Signal;HPM_P1;HPM_P2
2023/02/23 00:01:17;;;;;;;;;43.25;37.00;;;;;;;;5001297;28;11687;-80
2023/02/23 00:03:45;;;;;;;;;37.75;36.25;;;;;;;;4991079;28;11597;-81
2023/02/23 00:06:14;;;;;;;;;44.50;37.25;;;;;;;;4995504;28;11546;-79
2023/02/23 00:08:41;;;;;;;;;43.00;35.75;;;;;;;;5007576;28;11559;-80
2023/02/23 00:11:11;;;;;;;;;34.00;31.75;;;;;;;;5002181;28;11652;-80
2023/02/23 00:13:40;;;;;;;;;35.75;31.75;;;;;;;;5007706;28;11641;-81
2023/02/23 00:16:11;;;;;;;;;34.75;29.50;;;;;;;;5008721;28;11555;-80
2023/02/23 00:18:47;;;;;;;;;31.75;31.00;;;;;;;;5000669;28;11769;-79
2023/02/23 00:21:17;;;;;;;;;30.25;25.00;;;;;;;;5006073;28;11583;-80
2023/02/23 00:23:49;;;;;;;;;24.00;23.75;;;;;;;;5003239;28;11664;-79
2023/02/23 00:26:19;;;;;;;;;25.50;23.00;;;;;;;;4999988;28;11671;-80
2023/02/23 00:28:47;;;;;;;;;25.75;24.75;;;;;;;;5011292;28;12497;-80
2023/02/23 00:31:14;;;;;;;;;29.00;26.00;;;;;;;;5009030;28;11705;-79
2023/02/23 00:33:42;;;;;;;;;16.25;16.25;;;;;;;;5002668;28;11570;-80
2023/02/23 00:36:12;;;;;;;;;21.50;20.75;;;;;;;;5004237;28;11540;-79
2023/02/23 00:38:41;;;;;;;;;19.75;19.75;;;;;;;;5001176;28;11558;-80
2023/02/23 00:41:10;;;;;;;;;18.00;17.25;;;;;;;;5008023;28;11529;-79
2023/02/23 00:43:46;;;;;;;;;19.75;17.25;;;;;;;;5004223;28;11532;-80
2023/02/23 00:46:15;;;;;;;;;21.50;17.00;;;;;;;;5002934;28;11550;-80
2023/02/23 00:48:43;;;;;;;;;19.25;19.25;;;;;;;;5006888;28;11680;-80
2023/02/23 00:51:11;;;;;;;;;22.75;18.50;;;;;;;;5010892;28;11556;-80
2023/02/23 00:53:40;;;;;;;;;16.00;15.75;;;;;;;;5008011;28;11536;-80
2023/02/23 00:56:09;;;;;;;;;15.00;13.75;;;;;;;;5003962;28;11529;-78
2023/02/23 00:58:37;;;;;;;;;19.25;16.00;;;;;;;;5000752;28;11685;-79
2023/02/23 01:01:06;;;;;;;;;15.25;13.00;;;;;;;;5003426;28;11542;-78
2023/02/23 01:03:33;;;;;;;;;13.50;11.25;;;;;;;;5005684;28;11542;-80
2023/02/23 01:06:04;;;;;;;;;15.75;15.75;;;;;;;;5006773;28;11530;-79
2023/02/23 01:08:31;;;;;;;;;15.25;10.25;;;;;;;;5007869;28;11888;-80
2023/02/23 01:11:06;;;;;;;;;15.00;12.00;;;;;;;;5003515;28;11108;-79
2023/02/23 01:13:33;;;;;;;;;16.00;16.00;;;;;;;;5006288;28;11224;-80
2023/02/23 01:16:00;;;;;;;;;13.25;13.25;;;;;;;;5003581;28;11305;-79
2023/02/23 01:18:28;;;;;;;;;19.25;18.00;;;;;;;;5006571;28;11195;-79
2023/02/23 01:20:55;;;;;;;;;16.50;14.75;;;;;;;;5003602;28;12118;-79
2023/02/23 01:23:23;;;;;;;;;17.25;15.00;;;;;;;;5002465;28;11251;-81
2023/02/23 01:25:50;;;;;;;;;13.50;13.50;;;;;;;;5002279;28;11221;-79
2023/02/23 01:28:19;;;;;;;;;15.75;12.25;;;;;;;;5005386;28;11164;-79
2023/02/23 01:30:47;;;;;;;;;14.75;14.00;;;;;;;;5003686;28;12048;-79
2023/02/23 01:33:14;;;;;;;;;11.50;9.75;;;;;;;;5002923;28;11250;-79
2023/02/23 01:35:42;;;;;;;;;11.50;11.50;;;;;;;;5003836;28;11178;-80
2023/02/23 01:38:10;;;;;;;;;15.00;15.00;;;;;;;;5009234;28;11394;-80
2023/02/23 01:40:38;;;;;;;;;13.25;13.25;;;;;;;;5000662;28;11322;-79
2023/02/23 01:43:13;;;;;;;;;11.75;11.25;;;;;;;;5002013;28;11534;-79
2023/02/23 01:45:44;;;;;;;;;9.50;9.50;;;;;;;;5003937;28;11353;-79
2023/02/23 01:48:13;;;;;;;;;14.25;14.00;;;;;;;;5002898;28;11204;-79
2023/02/23 01:50:46;;;;;;;;;17.25;17.25;;;;;;;;5005196;28;11565;-80
2023/02/23 01:53:13;;;;;;;;;17.00;15.50;;;;;;;;4997509;28;11542;-80
2023/02/23 01:55:40;;;;;;;;;14.75;14.75;;;;;;;;5000860;28;11569;-80
2023/02/23 01:58:14;;;;;;;;;16.00;14.75;;;;;;;;4999683;28;11537;-80
2023/02/23 02:00:45;;;;;;;;;21.75;17.50;;;;;;;;5003612;28;11538;-80
2023/02/23 02:03:18;;;;;;;;;18.25;16.25;;;;;;;;5020514;28;12332;-80
2023/02/23 02:05:47;;;;;;;;;16.00;16.00;;;;;;;;5008047;28;11627;-80
2023/02/23 02:08:17;;;;;;;;;19.75;15.00;;;;;;;;4998654;28;11573;-80
2023/02/23 02:10:46;;;;;;;;;15.50;15.50;;;;;;;;5014241;28;11474;-80
2023/02/23 02:13:20;;;;;;;;;16.50;15.00;;;;;;;;4998321;28;11523;-80
2023/02/23 02:16:27;;;;;;;;;14.00;14.00;;;;;;;;5029853;28;11466;-80
2023/02/23 02:19:17;;;;;;;;;12.25;12.25;;;;;;;;5012289;28;11493;-83
2023/02/23 02:22:24;;;;;;;;;17.00;15.25;;;;;;;;5001902;28;11467;-80
2023/02/23 02:25:19;;;;;;;;;21.75;17.25;;;;;;;;4971795;28;11507;-80
2023/02/23 02:28:11;;;;;;;;;17.25;16.00;;;;;;;;5002326;28;11605;-80
2023/02/23 02:31:01;;;;;;;;;14.25;14.25;;;;;;;;4998668;28;11466;-79
2023/02/23 02:33:50;;;;;;;;;16.00;16.00;;;;;;;;4990722;28;11493;-80
2023/02/23 02:36:49;;;;;;;;;18.50;15.00;;;;;;;;5027971;28;11594;-79
2023/02/23 02:39:23;;;;;;;;;22.25;17.50;;;;;;;;5025485;28;11478;-80
2023/02/23 02:41:56;;;;;;;;;21.25;17.25;;;;;;;;5025596;28;11475;-80
2023/02/23 02:44:30;;;;;;;;;15.00;15.00;;;;;;;;5017111;28;11510;-80
2023/02/23 02:47:03;;;;;;;;;22.25;19.25;;;;;;;;5035603;28;11469;-79
2023/02/23 02:49:36;;;;;;;;;14.50;14.50;;;;;;;;5027218;28;11468;-80
2023/02/23 02:52:11;;;;;;;;;14.50;14.50;;;;;;;;5012786;28;11522;-80
2023/02/23 02:54:40;;;;;;;;;13.50;13.50;;;;;;;;5026352;28;11283;-80
2023/02/23 02:57:08;;;;;;;;;19.25;18.25;;;;;;;;5029176;28;11476;-80
2023/02/23 04:18:08;;;;;;;;;10.75;9.00;;;;;;;;5008485;28;11477;-79
2023/02/23 04:20:35;;;;;;;;;12.25;10.50;;;;;;;;5010100;28;11462;-78
2023/02/23 04:23:02;;;;;;;;;13.25;11.00;;;;;;;;5029298;28;11488;-80
2023/02/23 04:25:31;;;;;;;;;12.25;12.25;;;;;;;;5033469;28;11498;-79
2023/02/23 04:27:58;;;;;;;;;12.50;12.50;;;;;;;;5033427;28;11493;-79
2023/02/23 04:30:27;;;;;;;;;15.00;13.50;;;;;;;;5034867;28;11474;-79
2023/02/23 04:32:58;;;;;;;;;16.25;14.00;;;;;;;;5032691;28;11653;-79
2023/02/23 04:35:28;;;;;;;;;18.75;16.75;;;;;;;;5034380;28;11433;-80
2023/02/23 04:37:56;;;;;;;;;14.75;13.25;;;;;;;;5019168;28;11464;-80
2023/02/23 04:40:23;;;;;;;;;8.75;8.75;;;;;;;;5014573;28;11490;-79
2023/02/23 04:42:51;;;;;;;;;17.25;14.00;;;;;;;;5034339;28;11467;-79
2023/02/23 04:45:18;;;;;;;;;19.25;16.75;;;;;;;;5030067;28;11451;-78
2023/02/23 04:47:46;;;;;;;;;15.50;15.50;;;;;;;;5027460;28;11488;-79
2023/02/23 04:50:15;;;;;;;;;19.75;19.75;;;;;;;;5016765;28;11533;-79
2023/02/23 04:52:42;;;;;;;;;21.50;18.75;;;;;;;;5030051;28;11510;-79
2023/02/23 04:55:17;;;;;;;;;16.75;12.75;;;;;;;;5027168;28;11486;-79
2023/02/23 04:57:44;;;;;;;;;15.00;11.75;;;;;;;;5026152;28;11500;-78
2023/02/23 05:00:13;;;;;;;;;12.25;9.75;;;;;;;;5010983;28;11506;-79
2023/02/23 05:02:41;;;;;;;;;21.00;17.00;;;;;;;;4998208;28;11547;-79
2023/02/23 05:05:09;;;;;;;;;14.00;14.00;;;;;;;;4986305;28;11584;-80
2023/02/23 05:07:39;;;;;;;;;18.50;15.50;;;;;;;;4993199;28;11555;-79
2023/02/23 05:10:07;;;;;;;;;10.00;10.00;;;;;;;;5000836;28;11665;-78
2023/02/23 05:12:35;;;;;;;;;19.50;18.00;;;;;;;;5000079;28;11514;-79
2023/02/23 05:15:02;;;;;;;;;15.50;14.00;;;;;;;;4998908;28;11648;-80
2023/02/23 05:17:30;;;;;;;;;12.00;12.00;;;;;;;;4997848;28;11456;-79
2023/02/23 05:19:57;;;;;;;;;15.25;14.00;;;;;;;;5007071;28;11522;-79
2023/02/23 05:22:24;;;;;;;;;10.25;9.75;;;;;;;;4975543;28;11526;-79
2023/02/23 05:24:56;;;;;;;;;15.25;14.75;;;;;;;;4986783;28;11590;-79
2023/02/23 05:27:23;;;;;;;;;11.00;9.50;;;;;;;;4991079;28;11515;-79
2023/02/23 05:29:51;;;;;;;;;12.00;10.50;;;;;;;;4984130;28;11493;-78
2023/02/23 05:32:18;;;;;;;;;14.50;12.75;;;;;;;;5000725;28;12323;-79
2023/02/23 05:34:46;;;;;;;;;14.50;11.25;;;;;;;;4999840;28;11600;-78
2023/02/23 05:37:13;;;;;;;;;9.75;9.75;;;;;;;;4969582;28;11523;-79
2023/02/23 05:39:41;;;;;;;;;14.00;13.00;;;;;;;;5002423;28;11491;-79
2023/02/23 05:42:10;;;;;;;;;16.50;10.75;;;;;;;;4986054;28;11502;-80
2023/02/23 05:44:39;;;;;;;;;10.75;10.75;;;;;;;;5000344;28;11545;-79
2023/02/23 05:47:06;;;;;;;;;10.00;10.00;;;;;;;;4984371;28;11497;-79
2023/02/23 05:49:34;;;;;;;;;16.00;14.75;;;;;;;;4998530;28;11606;-79
2023/02/23 05:52:01;;;;;;;;;14.50;10.50;;;;;;;;4966111;28;12873;-80
2023/02/23 05:54:28;;;;;;;;;12.00;9.75;;;;;;;;4983464;28;11482;-79
2023/02/23 05:56:56;;;;;;;;;5.25;5.25;;;;;;;;5003985;28;11471;-79
2023/02/23 05:59:25;;;;;;;;;10.25;8.75;;;;;;;;4996410;28;11474;-79
2023/02/23 06:01:53;;;;;;;;;10.75;10.00;;;;;;;;5001343;28;11507;-79
2023/02/23 06:04:22;;;;;;;;;8.00;8.00;;;;;;;;4998899;28;11457;-79
2023/02/23 06:06:50;;;;;;;;;11.50;11.00;;;;;;;;4999896;28;11559;-79
2023/02/23 06:09:18;;;;;;;;;13.75;11.50;;;;;;;;4999491;28;11530;-79
2023/02/23 06:11:45;;;;;;;;;11.00;8.25;;;;;;;;4976980;28;11584;-79
2023/02/23 06:14:15;;;;;;;;;18.00;17.00;;;;;;;;4948706;28;11480;-79
2023/02/23 06:16:47;;;;;;;;;11.50;10.50;;;;;;;;4981177;28;11621;-79
2023/02/23 06:19:14;;;;;;;;;15.50;14.25;;;;;;;;4981243;28;11611;-79
2023/02/23 06:21:41;;;;;;;;;14.00;14.00;;;;;;;;4996934;28;11531;-80
2023/02/23 06:24:09;;;;;;;;;16.50;14.75;;;;;;;;5001614;28;11497;-81
2023/02/23 06:26:37;;;;;;;;;11.50;11.50;;;;;;;;5000578;28;11515;-82
2023/02/23 06:29:04;;;;;;;;;12.50;12.50;;;;;;;;4996372;28;11502;-80
2023/02/23 06:31:32;;;;;;;;;13.00;10.25;;;;;;;;4996877;28;11561;-79
2023/02/23 06:34:01;;;;;;;;;11.25;11.25;;;;;;;;4999696;28;11504;-79
2023/02/23 06:36:29;;;;;;;;;20.50;17.50;;;;;;;;4980584;28;11515;-79
2023/02/23 06:38:57;;;;;;;;;14.25;14.25;;;;;;;;4984507;28;11635;-80
2023/02/23 06:41:25;;;;;;;;;14.25;14.25;;;;;;;;4999456;28;11572;-80
2023/02/23 06:43:54;;;;;;;;;16.50;13.75;;;;;;;;5000190;28;11488;-80
2023/02/23 06:46:23;;;;;;;;;11.75;11.25;;;;;;;;5000984;28;11479;-79
2023/02/23 06:48:50;;;;;;;;;14.50;13.00;;;;;;;;5003036;28;11516;-79
2023/02/23 06:51:19;;;;;;;;;15.00;15.00;;;;;;;;5010226;28;11441;-78
2023/02/23 06:53:46;;;;;;;;;17.25;15.50;;;;;;;;5001941;28;11499;-79
2023/02/23 06:56:14;;;;;;;;;17.50;15.50;;;;;;;;5001995;28;11555;-79
2023/02/23 06:58:42;;;;;;;;;16.25;16.00;;;;;;;;4986433;28;11516;-80
2023/02/23 07:01:11;;;;;;;;;19.00;15.00;;;;;;;;4986921;28;11505;-80
2023/02/23 07:03:38;;;;;;;;;14.25;14.25;;;;;;;;4998932;28;11497;-79
2023/02/23 07:06:06;;;;;;;;;15.00;12.00;;;;;;;;5001479;28;12283;-80
2023/02/23 07:08:36;;;;;;;;;14.50;13.00;;;;;;;;5001548;28;11606;-80
2023/02/23 07:11:08;;;;;;;;;16.50;16.50;;;;;;;;5004160;28;11505;-80
2023/02/23 07:13:35;;;;;;;;;19.00;19.00;;;;;;;;5005928;28;11491;-80
2023/02/23 07:16:03;;;;;;;;;19.50;15.50;;;;;;;;5001358;28;11513;-81
2023/02/23 07:18:30;;;;;;;;;15.00;15.00;;;;;;;;5001311;28;11534;-80
2023/02/23 07:20:58;;;;;;;;;16.00;16.00;;;;;;;;5004291;28;11485;-81
2023/02/23 07:23:25;;;;;;;;;13.75;12.50;;;;;;;;4991526;28;11506;-80
2023/02/23 07:25:55;;;;;;;;;17.00;15.00;;;;;;;;4984120;28;11487;-77
2023/02/23 07:28:26;;;;;;;;;14.50;13.50;;;;;;;;4995278;28;11652;-77
2023/02/23 07:30:56;;;;;;;;;14.00;14.00;;;;;;;;4997305;28;11521;-77
2023/02/23 07:33:23;;;;;;;;;20.75;18.00;;;;;;;;5000948;28;11479;-74
2023/02/23 07:35:50;;;;;;;;;25.50;23.50;;;;;;;;4987013;28;11579;-74
2023/02/23 07:38:18;;;;;;;;;25.00;23.75;;;;;;;;4997075;28;11548;-74
2023/02/23 07:40:45;;;;;;;;;24.75;20.25;;;;;;;;4986105;28;12876;-74
2023/02/23 07:43:14;;;;;;;;;28.50;22.25;;;;;;;;4999322;28;11654;-74
2023/02/23 07:45:42;;;;;;;;;19.00;16.50;;;;;;;;4934879;28;61431;-73
2023/02/23 07:48:09;;;;;;;;;16.75;16.75;;;;;;;;4978233;28;11723;-77
2023/02/23 07:50:36;;;;;;;;;18.50;18.50;;;;;;;;4989237;28;82438;-71
2023/02/23 07:53:04;;;;;;;;;18.50;18.00;;;;;;;;4996165;28;11531;-74
2023/02/23 07:55:31;;;;;;;;;20.25;18.75;;;;;;;;4979176;28;11541;-72
2023/02/23 07:57:58;;;;;;;;;19.75;18.00;;;;;;;;4998650;28;11486;-73
2023/02/23 08:00:28;;;;;;;;;22.00;22.00;;;;;;;;4983912;28;11518;-71
2023/02/23 08:02:55;;;;;;;;;14.50;12.50;;;;;;;;4996202;28;11541;-74
2023/02/23 08:05:22;;;;;;;;;23.25;23.25;;;;;;;;5020517;28;11531;-74
2023/02/23 08:07:49;;;;;;;;;24.25;23.25;;;;;;;;5018292;28;11600;-73
2023/02/23 08:10:17;;;;;;;;;28.00;20.75;;;;;;;;5017698;28;11472;-72
2023/02/23 08:12:44;;;;;;;;;18.75;18.75;;;;;;;;5018349;28;11605;-72
2023/02/23 08:15:12;;;;;;;;;20.25;17.50;;;;;;;;5018053;28;11643;-74
2023/02/23 08:17:42;;;;;;;;;23.00;19.00;;;;;;;;5020544;28;11578;-73
2023/02/23 08:20:10;;;;;;;;;16.25;15.75;;;;;;;;5017087;28;11531;-72
2023/02/23 08:22:38;;;;;;;;;20.00;19.00;;;;;;;;5018524;28;11530;-75
2023/02/23 08:25:07;;;;;;;;;22.50;20.25;;;;;;;;5019816;28;11544;-73
2023/02/23 08:27:35;;;;;;;;;27.00;24.50;;;;;;;;5002211;28;11638;-76
2023/02/23 08:30:04;;;;;;;;;19.25;19.00;;;;;;;;5018948;28;11581;-75
2023/02/23 08:32:33;;;;;;;;;24.50;22.75;;;;;;;;4999077;28;11629;-72
2023/02/23 08:35:02;;;;;;;;;20.50;16.50;;;;;;;;5016272;28;11740;-71
2023/02/23 08:37:30;;;;;;;;;22.25;19.75;;;;;;;;5017319;28;11560;-71
2023/02/23 08:39:58;;;;;;;;;27.00;25.00;;;;;;;;5016489;28;11487;-72
2023/02/23 08:42:25;;;;;;;;;24.25;21.50;;;;;;;;5012334;28;11531;-72
2023/02/23 08:44:52;;;;;;;;;15.75;15.50;;;;;;;;5015175;28;12388;-72
2023/02/23 08:47:22;;;;;;;;;19.50;19.00;;;;;;;;5014926;28;11515;-72
2023/02/23 08:49:49;;;;;;;;;18.00;18.00;;;;;;;;5013196;28;139971;-71
2023/02/23 08:52:18;;;;;;;;;23.25;19.00;;;;;;;;4983599;28;11568;-71
2023/02/23 08:54:46;;;;;;;;;29.00;24.00;;;;;;;;4999163;28;11501;-71
2023/02/23 08:57:13;;;;;;;;;23.25;20.00;;;;;;;;5013991;28;11428;-71
2023/02/23 08:59:41;;;;;;;;;16.50;16.50;;;;;;;;4999789;28;11502;-70
2023/02/23 09:02:12;;;;;;;;;16.75;16.25;;;;;;;;5007926;28;11524;-73
2023/02/23 09:04:41;;;;;;;;;17.75;17.75;;;;;;;;4984241;28;11502;-72
2023/02/23 09:07:13;;;;;;;;;21.25;17.75;;;;;;;;4997186;28;11556;-72
2023/02/23 09:09:42;;;;;;;;;18.00;18.00;;;;;;;;4993386;28;11474;-71
2023/02/23 09:12:10;;;;;;;;;19.00;19.00;;;;;;;;4994850;28;11466;-72
2023/02/23 09:14:37;;;;;;;;;16.50;16.00;;;;;;;;4994007;28;11580;-72
2023/02/23 09:17:05;;;;;;;;;19.00;18.50;;;;;;;;4992663;28;11332;-71
2023/02/23 09:19:32;;;;;;;;;15.50;14.25;;;;;;;;4975910;28;11317;-71
2023/02/23 09:22:00;;;;;;;;;17.25;15.50;;;;;;;;4983321;28;11049;-71
2023/02/23 09:24:27;;;;;;;;;18.75;15.25;;;;;;;;4998112;28;11128;-70
2023/02/23 09:26:56;;;;;;;;;15.25;13.75;;;;;;;;5001570;28;11272;-70
2023/02/23 09:29:24;;;;;;;;;16.50;16.50;;;;;;;;4998468;28;11103;-71
2023/02/23 09:31:51;;;;;;;;;15.75;12.75;;;;;;;;4991983;28;11260;-72
2023/02/23 09:34:19;;;;;;;;;15.75;14.50;;;;;;;;4995850;28;11002;-71
2023/02/23 09:36:46;;;;;;;;;14.00;12.75;;;;;;;;4976597;28;11059;-69
2023/02/23 09:39:13;;;;;;;;;17.50;13.25;;;;;;;;4997871;28;10909;-73
2023/02/23 09:41:59;;;;;;;;;19.00;17.00;;;;;;;;4998070;28;11000;-71
2023/02/23 09:44:35;;;;;;;;;12.00;12.00;;;;;;;;4980799;28;10931;-73
2023/02/23 09:47:11;;;;;;;;;12.25;12.25;;;;;;;;4993264;28;10851;-71
2023/02/23 09:49:41;;;;;;;;;10.75;10.75;;;;;;;;4991388;28;11616;-71
2023/02/23 09:52:15;;;;;;;;;15.00;15.00;;;;;;;;4992287;28;10825;-70
2023/02/23 09:54:43;;;;;;;;;12.00;12.00;;;;;;;;4994537;28;10736;-71
2023/02/23 09:57:15;;;;;;;;;10.50;10.50;;;;;;;;4991552;28;10757;-71
2023/02/23 09:59:44;;;;;;;;;12.00;12.00;;;;;;;;4980387;28;10662;-70
2023/02/23 10:02:19;;;;;;;;;12.00;10.50;;;;;;;;4994267;28;10703;-72
2023/02/23 10:04:48;;;;;;;;;15.75;13.00;;;;;;;;4997688;28;11555;-72
2023/02/23 10:07:19;;;;;;;;;11.25;11.25;;;;;;;;4995614;28;10711;-73
2023/02/23 10:10:00;;;;;;;;;11.00;11.00;;;;;;;;4995524;28;10671;-73
2023/02/23 10:12:33;;;;;;;;;16.50;16.50;;;;;;;;4995778;28;10539;-72
2023/02/23 10:15:11;;;;;;;;;12.00;12.00;;;;;;;;4994591;28;10623;-74
2023/02/23 10:17:43;;;;;;;;;12.00;12.00;;;;;;;;4993180;28;10760;-73
2023/02/23 10:20:19;;;;;;;;;16.00;11.50;;;;;;;;4998844;28;10725;-72
2023/02/23 10:22:47;;;;;;;;;12.00;12.00;;;;;;;;4998397;28;10690;-73
2023/02/23 10:25:18;;;;;;;;;12.75;12.50;;;;;;;;5000696;28;10553;-72
2023/02/23 10:27:48;;;;;;;;;9.25;9.25;;;;;;;;4981710;28;10720;-76
2023/02/23 10:30:22;;;;;;;;;10.25;10.25;;;;;;;;4999832;28;10456;-71
2023/02/23 10:32:54;;;;;;;;;15.25;15.25;;;;;;;;4996108;28;10831;-71
2023/02/23 10:35:23;;;;;;;;;14.75;14.25;;;;;;;;4978634;28;10374;-75
2023/02/23 10:37:55;;;;;;;;;15.50;13.50;;;;;;;;5003139;28;10355;-74
2023/02/23 10:40:27;;;;;;;;;15.50;13.50;;;;;;;;5003386;28;10481;-74
2023/02/23 10:42:58;;;;;;;;;15.00;13.00;;;;;;;;4982503;28;10401;-75
2023/02/23 10:45:27;;;;;;;;;14.50;14.50;;;;;;;;4999403;28;10468;-73
2023/02/23 10:47:58;;;;;;;;;11.25;10.50;;;;;;;;4995476;28;10425;-75
2023/02/23 10:50:27;;;;;;;;;17.75;16.50;;;;;;;;4999421;28;10365;-73
2023/02/23 10:52:58;;;;;;;;;11.50;11.25;;;;;;;;4998283;28;10486;-76
2023/02/23 10:55:27;;;;;;;;;14.00;14.00;;;;;;;;4981287;28;10389;-75
2023/02/23 10:58:15;;;;;;;;;13.00;11.50;;;;;;;;4998790;28;86953;-73
2023/02/23 11:00:52;;;;;;;;;14.50;14.50;;;;;;;;5000294;28;10345;-76
2023/02/23 11:03:25;;;;;;;;;14.50;13.50;;;;;;;;4990495;28;10354;-74
2023/02/23 11:05:52;;;;;;;;;13.25;13.25;;;;;;;;5006039;28;10353;-74
2023/02/23 11:08:29;;;;;;;;;12.75;12.75;;;;;;;;5002379;28;10296;-76
2023/02/23 11:11:06;;;;;;;;;16.75;14.50;;;;;;;;5004442;28;10390;-74
2023/02/23 11:13:40;;;;;;;;;17.50;17.50;;;;;;;;5000840;28;10944;-75
2023/02/23 11:16:11;;;;;;;;;17.50;13.25;;;;;;;;4997150;28;10419;-76
2023/02/23 11:18:41;;;;;;;;;19.00;17.25;;;;;;;;4998711;28;10079;-74
2023/02/23 11:21:14;;;;;;;;;11.50;10.50;;;;;;;;4998873;28;11072;-74
2023/02/23 11:23:42;;;;;;;;;13.75;12.00;;;;;;;;4999953;28;10108;-73
2023/02/23 11:26:27;;;;;;;;;15.75;13.50;;;;;;;;4994706;28;10059;-74
2023/02/23 11:28:58;;;;;;;;;12.00;9.75;;;;;;;;4966397;28;10069;-74
2023/02/23 11:31:33;;;;;;;;;17.00;14.50;;;;;;;;4997609;28;10047;-73
2023/02/23 11:34:02;;;;;;;;;11.50;11.50;;;;;;;;5000434;28;9951;-74
2023/02/23 11:36:32;;;;;;;;;14.00;14.00;;;;;;;;4999036;28;9856;-71
2023/02/23 11:39:05;;;;;;;;;17.25;13.00;;;;;;;;4998170;28;9969;-71
2023/02/23 11:41:34;;;;;;;;;29.75;28.25;;;;;;;;4996415;28;9875;-72
2023/02/23 11:44:03;;;;;;;;;13.50;13.50;;;;;;;;4999887;28;10244;-71
2023/02/23 11:46:33;;;;;;;;;19.00;15.75;;;;;;;;4997415;28;9954;-71
2023/02/23 11:49:02;;;;;;;;;32.50;25.25;;;;;;;;4987585;28;9886;-73
2023/02/23 11:51:33;;;;;;;;;16.50;16.50;;;;;;;;4997669;28;10255;-73
2023/02/23 11:54:01;;;;;;;;;14.00;12.75;;;;;;;;4997516;28;10078;-71
2023/02/23 11:56:31;;;;;;;;;12.75;11.50;;;;;;;;4999981;28;9750;-72
2023/02/23 11:59:03;;;;;;;;;15.25;14.00;;;;;;;;4988588;28;9791;-72
2023/02/23 12:01:43;;;;;;;;;15.25;11.50;;;;;;;;4984556;28;9963;-74
2023/02/23 12:04:29;;;;;;;;;17.50;15.25;;;;;;;;5003100;28;10053;-72
2023/02/23 12:07:30;;;;;;;;;17.50;16.00;;;;;;;;5019250;28;10017;-74
2023/02/23 12:10:05;;;;;;;;;21.50;21.25;;;;;;;;5019907;28;10046;-72
2023/02/23 12:12:39;;;;;;;;;19.75;15.75;;;;;;;;5021439;28;10329;-73
2023/02/23 12:15:15;;;;;;;;;26.00;22.50;;;;;;;;5020459;28;10830;-72
2023/02/23 12:17:49;;;;;;;;;19.25;17.00;;;;;;;;5019500;28;10186;-72
2023/02/23 12:20:21;;;;;;;;;24.25;21.00;;;;;;;;5001779;28;9925;-72
2023/02/23 12:22:53;;;;;;;;;21.25;20.50;;;;;;;;5015563;28;9869;-71
2023/02/23 12:25:25;;;;;;;;;22.50;21.75;;;;;;;;5015602;28;9960;-72
2023/02/23 12:27:57;;;;;;;;;15.75;14.25;;;;;;;;5001964;28;9971;-73
2023/02/23 12:30:36;;;;;;;;;22.75;19.50;;;;;;;;5019587;28;10028;-73
2023/02/23 12:33:07;;;;;;;;;25.75;25.00;;;;;;;;5018869;28;10023;-74
2023/02/23 12:35:44;;;;;;;;;22.00;22.00;;;;;;;;5004189;28;10896;-74
2023/02/23 12:38:19;;;;;;;;;27.75;25.50;;;;;;;;5021419;28;10758;-73
2023/02/23 12:40:46;;;;;;;;;34.00;27.50;;;;;;;;5018180;28;10028;-73
2023/02/23 12:43:17;;;;;;;;;31.50;28.75;;;;;;;;5013539;28;11042;-74
2023/02/23 12:45:51;;;;;;;;;22.25;19.75;;;;;;;;5016849;28;10201;-76
2023/02/23 12:48:31;;;;;;;;;20.75;19.25;;;;;;;;5016493;28;10745;-73
2023/02/23 12:51:01;;;;;;;;;23.50;20.00;;;;;;;;5016629;28;10114;-73
2023/02/23 12:53:34;;;;;;;;;27.50;22.75;;;;;;;;5019202;28;10292;-74
2023/02/23 12:56:12;;;;;;;;;16.75;16.75;;;;;;;;5018100;28;10328;-75
2023/02/23 12:58:45;;;;;;;;;22.00;18.25;;;;;;;;5019613;28;10174;-74
2023/02/23 13:01:20;;;;;;;;;21.25;20.00;;;;;;;;5015904;28;10131;-75
2023/02/23 13:04:12;;;;;;;;;20.50;19.00;;;;;;;;5018181;28;10292;-76
2023/02/23 13:06:47;;;;;;;;;27.25;23.75;;;;;;;;5002962;28;9939;-75
2023/02/23 13:09:27;;;;;;;;;16.25;16.25;;;;;;;;5011876;28;10144;-73
2023/02/23 13:12:06;;;;;;;;;23.75;23.25;;;;;;;;5013490;28;10180;-75
2023/02/23 13:14:43;;;;;;;;;34.75;29.50;;;;;;;;5002204;28;9967;-75
2023/02/23 13:17:25;;;;;;;;;16.00;13.25;;;;;;;;4985507;28;10157;-76
2023/02/23 13:19:57;;;;;;;;;21.75;21.50;;;;;;;;5001108;28;9597;-75
2023/02/23 13:22:32;;;;;;;;;15.00;14.00;;;;;;;;5018894;28;9990;-76
2023/02/23 13:25:01;;;;;;;;;14.00;12.50;;;;;;;;5015527;28;9850;-74
2023/02/23 13:27:35;;;;;;;;;40.75;31.50;;;;;;;;5014393;28;9769;-75
2023/02/23 13:30:04;;;;;;;;;12.00;10.50;;;;;;;;4999176;28;10122;-76
2023/02/23 13:32:36;;;;;;;;;21.00;21.00;;;;;;;;5016680;28;9595;-75
2023/02/23 13:35:06;;;;;;;;;18.25;18.25;;;;;;;;5015545;28;10428;-74
2023/02/23 13:37:38;;;;;;;;;21.25;20.25;;;;;;;;5018162;28;10711;-74
2023/02/23 13:40:20;;;;;;;;;16.25;16.25;;;;;;;;5018345;28;9871;-75
2023/02/23 13:42:57;;;;;;;;;16.50;14.25;;;;;;;;5018861;28;9879;-75
2023/02/23 13:45:32;;;;;;;;;12.50;11.75;;;;;;;;5000605;28;9633;-74
2023/02/23 13:48:06;;;;;;;;;13.25;13.00;;;;;;;;5003410;28;9574;-74
2023/02/23 13:50:40;;;;;;;;;13.00;13.00;;;;;;;;5017241;28;9613;-74
2023/02/23 13:53:28;;;;;;;;;8.25;7.75;;;;;;;;5003999;28;9654;-76
2023/02/23 13:55:59;;;;;;;;;13.75;13.75;;;;;;;;5010817;28;9565;-76
2023/02/23 13:58:29;;;;;;;;;12.50;12.50;;;;;;;;5005514;28;9785;-74
2023/02/23 14:01:09;;;;;;;;;13.75;13.25;;;;;;;;5023468;28;9834;-75
2023/02/23 14:03:45;;;;;;;;;9.00;9.00;;;;;;;;5016931;28;9949;-75
2023/02/23 14:06:15;;;;;;;;;13.25;13.25;;;;;;;;5022414;28;9633;-76
2023/02/23 14:08:44;;;;;;;;;15.75;13.75;;;;;;;;5020523;28;9826;-75
2023/02/23 14:11:28;;;;;;;;;14.00;11.00;;;;;;;;5021002;28;9642;-77
2023/02/23 14:14:01;;;;;;;;;13.00;13.00;;;;;;;;5020490;28;9648;-80
2023/02/23 14:16:28;;;;;;;;;14.25;12.50;;;;;;;;5018539;28;10443;-73
2023/02/23 14:19:15;;;;;;;;;24.25;16.25;;;;;;;;5022535;28;9770;-75
2023/02/23 14:21:46;;;;;;;;;31.50;29.50;;;;;;;;5022233;28;9861;-73
2023/02/23 14:24:19;;;;;;;;;38.50;33.25;;;;;;;;5013892;28;10234;-72
2023/02/23 14:27:28;;;;;;;;;15.75;15.75;;;;;;;;5021538;28;10478;-75
2023/02/23 14:30:17;;;;;;;;;12.75;12.75;;;;;;;;5017159;28;9848;-76
2023/02/23 14:32:47;;;;;;;;;14.00;12.50;;;;;;;;5020947;28;9801;-73
2023/02/23 14:35:41;;;;;;;;;15.25;14.75;;;;;;;;5020645;28;9792;-73
2023/02/23 14:38:17;;;;;;;;;21.50;17.25;;;;;;;;5021018;28;9785;-75
2023/02/23 14:40:47;;;;;;;;;25.50;22.50;;;;;;;;5014222;28;10185;-75
2023/02/23 14:43:41;;;;;;;;;13.25;13.25;;;;;;;;5021032;28;10365;-74
2023/02/23 14:46:18;;;;;;;;;18.50;18.50;;;;;;;;5021258;28;10114;-75
2023/02/23 14:48:57;;;;;;;;;23.00;21.00;;;;;;;;5020825;28;10225;-75
2023/02/23 14:51:34;;;;;;;;;25.00;21.75;;;;;;;;5021117;28;11021;-75
2023/02/23 14:54:01;;;;;;;;;20.25;18.75;;;;;;;;5020110;28;10098;-75
2023/02/23 14:56:29;;;;;;;;;21.50;19.50;;;;;;;;5021297;28;10199;-75
2023/02/23 14:58:57;;;;;;;;;18.25;18.25;;;;;;;;5020402;28;10203;-75
2023/02/23 15:01:34;;;;;;;;;23.00;20.25;;;;;;;;5024274;28;10121;-75
2023/02/23 15:04:12;;;;;;;;;14.75;14.75;;;;;;;;5021808;28;10199;-75
2023/02/23 15:06:43;;;;;;;;;23.00;20.25;;;;;;;;5020949;28;9883;-75
2023/02/23 15:09:18;;;;;;;;;15.00;13.50;;;;;;;;5016299;28;9954;-76
2023/02/23 15:12:00;;;;;;;;;9.75;9.75;;;;;;;;5025244;28;9920;-74
2023/02/23 15:14:27;;;;;;;;;18.25;18.25;;;;;;;;5024175;28;9951;-75
2023/02/23 15:16:56;;;;;;;;;16.75;14.75;;;;;;;;5022676;28;10102;-75
2023/02/23 15:19:27;;;;;;;;;21.75;21.50;;;;;;;;5020970;28;9999;-74
2023/02/23 15:21:57;;;;;;;;;31.50;28.50;;;;;;;;5005195;28;10193;-74
2023/02/23 15:24:27;;;;;;;;;31.50;30.25;;;;;;;;5020913;28;10341;-74
2023/02/23 15:26:56;;;;;;;;;21.75;19.75;;;;;;;;5008808;28;10272;-74
2023/02/23 15:29:25;;;;;;;;;19.50;17.50;;;;;;;;5007277;28;10282;-74
2023/02/23 15:31:56;;;;;;;;;27.75;27.75;;;;;;;;5013133;28;10124;-74
2023/02/23 15:34:26;;;;;;;;;27.75;26.25;;;;;;;;5024426;28;10417;-74
2023/02/23 15:36:57;;;;;;;;;29.25;24.00;;;;;;;;5004025;28;10438;-75
2023/02/23 15:39:36;;;;;;;;;14.25;14.25;;;;;;;;5021601;28;10411;-75
2023/02/23 15:42:04;;;;;;;;;17.75;15.50;;;;;;;;5006121;28;11015;-75
2023/02/23 15:44:33;;;;;;;;;20.00;18.75;;;;;;;;5013839;28;10347;-74
2023/02/23 15:47:06;;;;;;;;;18.00;18.00;;;;;;;;5022918;28;10749;-76
2023/02/23 15:49:37;;;;;;;;;11.75;11.75;;;;;;;;5025407;28;10879;-75
2023/02/23 15:52:09;;;;;;;;;13.00;13.00;;;;;;;;5027223;28;10430;-75
2023/02/23 15:54:40;;;;;;;;;17.00;14.25;;;;;;;;5023023;28;10447;-73
2023/02/23 15:57:16;;;;;;;;;23.50;22.25;;;;;;;;5025766;28;10345;-74
2023/02/23 15:59:47;;;;;;;;;15.50;15.50;;;;;;;;5012861;28;10521;-74
2023/02/23 16:02:18;;;;;;;;;19.25;17.50;;;;;;;;5024568;28;10449;-74